Time;durP1;ratioP1;P1;durP2;ratioP2;P2;SDS_P1;SDS_P2;PMS_P1;PMS_P2;Temp;Humidity;BMP_temperature;BMP_pressure;BME280_temperature;BME280_humidity;BME280_pressure;Samples;Min_cycle;Max_cycle;Signal;HPM_P1;HPM_P2
2024/03/30 00:00:55;;;;;;;0.50;0.50;;;12.80;78.40;;;;;;5070409;28;20107;-65
2024/03/30 00:03:22;;;;;;;0.70;0.68;;;12.80;78.40;;;;;;5069909;28;20017;-64
2024/03/30 00:06:01;;;;;;;0.52;0.52;;;12.80;78.40;;;;;;5071335;28;20017;-65
2024/03/30 00:08:27;;;;;;;0.80;0.70;;;12.80;78.50;;;;;;5068094;28;20126;-66
2024/03/30 00:11:01;;;;;;;0.60;0.60;;;12.70;78.70;;;;;;5066695;28;20125;-66
2024/03/30 00:13:27;;;;;;;1.05;0.75;;;12.70;78.70;;;;;;5070993;28;20498;-67
2024/03/30 00:15:53;;;;;;;0.70;0.60;;;12.70;78.70;;;;;;5065316;28;20130;-66
2024/03/30 00:18:18;;;;;;;0.80;0.68;;;12.70;78.60;;;;;;5064503;28;20704;-67
2024/03/30 00:20:44;;;;;;;0.60;0.60;;;12.70;78.60;;;;;;5070225;28;20053;-66
2024/03/30 00:23:09;;;;;;;0.60;0.60;;;12.60;78.60;;;;;;5070710;28;20099;-67
2024/03/30 00:25:35;;;;;;;0.50;0.50;;;12.70;78.60;;;;;;5074389;28;20032;-67
2024/03/30 00:28:00;;;;;;;0.40;0.40;;;12.60;78.50;;;;;;5073442;28;20024;-66
2024/03/30 00:30:28;;;;;;;0.73;0.63;;;12.70;78.50;;;;;;5071653;28;20571;-67
2024/03/30 00:32:54;;;;;;;1.13;0.50;;;12.60;78.50;;;;;;5073914;28;20044;-67
2024/03/30 00:35:19;;;;;;;0.68;0.60;;;12.60;79.10;;;;;;5072394;28;20020;-66
2024/03/30 00:37:47;;;;;;;0.50;0.50;;;12.60;78.50;;;;;;5068327;28;20025;-66
2024/03/30 00:40:13;;;;;;;0.50;0.50;;;12.60;78.50;;;;;;5064103;28;20146;-65
2024/03/30 00:42:38;;;;;;;1.20;0.52;;;12.60;78.40;;;;;;5069186;28;20120;-67
2024/03/30 00:45:04;;;;;;;0.50;0.50;;;12.60;78.30;;;;;;5069650;28;20031;-67
2024/03/30 00:47:30;;;;;;;0.82;0.63;;;12.60;78.20;;;;;;5069415;28;20038;-67
2024/03/30 00:49:56;;;;;;;1.05;0.57;;;12.70;78.20;;;;;;5071321;28;20025;-67
2024/03/30 00:52:21;;;;;;;1.08;0.60;;;12.60;78.10;;;;;;5070218;28;20409;-65
2024/03/30 00:54:47;;;;;;;0.90;0.50;;;12.60;78.20;;;;;;5070855;28;20028;-67
2024/03/30 00:57:12;;;;;;;0.75;0.50;;;12.60;78.20;;;;;;5068626;28;20037;-66
2024/03/30 00:59:40;;;;;;;0.47;0.40;;;12.60;78.20;;;;;;5062908;28;20029;-65
2024/03/30 01:02:06;;;;;;;0.40;0.40;;;12.60;78.30;;;;;;5068774;28;20032;-65
2024/03/30 01:04:33;;;;;;;0.50;0.50;;;12.60;78.30;;;;;;5070161;28;20043;-67
2024/03/30 01:06:59;;;;;;;0.50;0.50;;;12.60;78.40;;;;;;5070764;28;20028;-66
2024/03/30 01:09:27;;;;;;;0.40;0.40;;;12.60;78.30;;;;;;5071336;28;20548;-65
2024/03/30 01:11:53;;;;;;;0.30;0.30;;;12.60;78.40;;;;;;5072539;28;20028;-66
2024/03/30 01:14:21;;;;;;;0.38;0.38;;;12.60;78.30;;;;;;5070659;28;20035;-65
2024/03/30 01:16:47;;;;;;;0.50;0.40;;;12.60;78.30;;;;;;5060148;28;20490;-64
2024/03/30 01:19:13;;;;;;;0.30;0.30;;;12.60;78.30;;;;;;5069253;28;20028;-65
2024/03/30 01:21:39;;;;;;;0.30;0.30;;;12.60;78.40;;;;;;5073665;28;20612;-66
2024/03/30 01:24:05;;;;;;;0.40;0.40;;;12.50;78.40;;;;;;5075197;28;20051;-66
2024/03/30 01:26:35;;;;;;;0.30;0.30;;;12.50;78.50;;;;;;5071542;28;20123;-66
2024/03/30 01:29:05;;;;;;;0.40;0.40;;;12.50;78.60;;;;;;5069653;28;20103;-68
2024/03/30 01:31:31;;;;;;;0.50;0.40;;;12.60;78.60;;;;;;5070627;28;20025;-67
2024/03/30 01:33:57;;;;;;;0.40;0.40;;;12.50;78.50;;;;;;5068151;28;20028;-65
2024/03/30 01:36:22;;;;;;;0.40;0.40;;;12.40;78.60;;;;;;5069780;28;20043;-64
2024/03/30 01:38:48;;;;;;;0.40;0.40;;;12.40;78.70;;;;;;5069513;28;20052;-66
2024/03/30 01:41:13;;;;;;;0.40;0.40;;;12.40;78.70;;;;;;5072888;28;20038;-67
2024/03/30 01:43:39;;;;;;;0.50;0.50;;;12.50;78.70;;;;;;5068869;28;20509;-66
2024/03/30 01:46:05;;;;;;;0.50;0.50;;;12.50;78.60;;;;;;5066852;28;20028;-64
2024/03/30 01:48:30;;;;;;;0.40;0.40;;;12.50;78.40;;;;;;5070837;28;20041;-65
2024/03/30 01:50:56;;;;;;;0.40;0.40;;;12.50;78.50;;;;;;5067255;28;20051;-67
2024/03/30 01:53:25;;;;;;;0.50;0.50;;;12.50;78.60;;;;;;5067643;28;20032;-66
2024/03/30 01:55:52;;;;;;;0.85;0.50;;;12.40;78.70;;;;;;5065557;28;20422;-66
2024/03/30 01:58:24;;;;;;;0.60;0.40;;;12.40;78.80;;;;;;5080989;28;20505;-65
2024/03/30 02:00:52;;;;;;;0.70;0.40;;;12.40;78.90;;;;;;5068505;28;20029;-66
2024/03/30 02:03:20;;;;;;;0.60;0.60;;;12.40;78.80;;;;;;5070986;28;20023;-67
2024/03/30 02:05:46;;;;;;;0.68;0.60;;;12.40;78.70;;;;;;5068072;28;20075;-67
2024/03/30 02:08:12;;;;;;;0.50;0.50;;;12.30;78.90;;;;;;5076380;28;20043;-66
2024/03/30 02:10:38;;;;;;;0.50;0.50;;;12.30;79.00;;;;;;5061752;28;20287;-67
2024/03/30 02:13:05;;;;;;;0.50;0.50;;;12.20;79.30;;;;;;5072130;28;20530;-65
2024/03/30 02:15:31;;;;;;;0.70;0.70;;;12.10;79.50;;;;;;5078232;28;20028;-66
2024/03/30 02:17:56;;;;;;;0.50;0.50;;;12.00;79.60;;;;;;5068897;28;20611;-67
2024/03/30 02:20:22;;;;;;;0.80;0.60;;;12.00;79.80;;;;;;5075422;28;20039;-66
2024/03/30 02:22:54;;;;;;;0.88;0.80;;;11.90;80.00;;;;;;5074269;28;20386;-66
2024/03/30 02:25:21;;;;;;;0.90;0.80;;;11.90;80.10;;;;;;5072229;28;20029;-65
2024/03/30 02:27:47;;;;;;;0.77;0.65;;;11.90;80.20;;;;;;5065311;28;20025;-66
2024/03/30 02:30:29;;;;;;;0.70;0.60;;;11.90;80.30;;;;;;5074896;28;20507;-67
2024/03/30 02:32:55;;;;;;;0.63;0.63;;;11.90;80.30;;;;;;5065205;28;20027;-65
2024/03/30 02:35:21;;;;;;;0.60;0.60;;;11.90;80.40;;;;;;5067599;28;20027;-66
2024/03/30 02:37:47;;;;;;;0.70;0.70;;;11.90;80.40;;;;;;5068235;28;20029;-66
2024/03/30 02:40:14;;;;;;;0.60;0.60;;;11.90;80.40;;;;;;5067726;28;20495;-65
2024/03/30 02:42:40;;;;;;;0.82;0.80;;;11.80;80.60;;;;;;5073607;28;20040;-66
2024/03/30 02:45:11;;;;;;;0.65;0.65;;;11.90;80.60;;;;;;5080276;28;20077;-66
2024/03/30 02:47:36;;;;;;;0.70;0.70;;;11.90;80.60;;;;;;5070822;28;20024;-66
2024/03/30 02:50:02;;;;;;;0.70;0.70;;;11.90;80.50;;;;;;5070189;28;20067;-66
2024/03/30 02:52:28;;;;;;;0.60;0.60;;;11.90;80.50;;;;;;5072840;28;20041;-65
2024/03/30 02:54:53;;;;;;;0.82;0.70;;;12.00;80.40;;;;;;5073896;28;20026;-65
2024/03/30 02:57:19;;;;;;;0.68;0.68;;;11.90;80.50;;;;;;5072448;28;20038;-66
2024/03/30 02:59:44;;;;;;;0.80;0.80;;;11.90;80.60;;;;;;5072398;28;20051;-66
2024/03/30 03:02:10;;;;;;;0.75;0.75;;;11.90;80.60;;;;;;5075830;28;20031;-65
2024/03/30 03:04:35;;;;;;;0.70;0.70;;;12.00;80.70;;;;;;5065576;28;20016;-66
2024/03/30 03:07:02;;;;;;;0.60;0.60;;;12.00;80.80;;;;;;5072973;28;20031;-66
2024/03/30 03:09:28;;;;;;;0.80;0.80;;;11.90;80.80;;;;;;5072831;28;20050;-64
2024/03/30 03:11:53;;;;;;;0.70;0.70;;;11.90;80.90;;;;;;5074304;28;20391;-66
2024/03/30 03:14:19;;;;;;;0.70;0.70;;;12.00;80.90;;;;;;5077762;28;20460;-66
2024/03/30 03:16:44;;;;;;;0.73;0.73;;;12.10;80.80;;;;;;5075330;28;20050;-65
2024/03/30 03:19:10;;;;;;;0.95;0.95;;;12.20;80.60;;;;;;5077585;28;20063;-65
2024/03/30 03:21:35;;;;;;;0.65;0.65;;;12.20;80.50;;;;;;5078920;28;20039;-66
2024/03/30 03:24:01;;;;;;;0.70;0.70;;;12.20;80.40;;;;;;5074573;28;20104;-65
2024/03/30 03:26:26;;;;;;;0.70;0.70;;;12.20;80.40;;;;;;5074617;28;20039;-67
2024/03/30 03:28:52;;;;;;;0.80;0.80;;;12.20;80.60;;;;;;5073515;28;20036;-66
2024/03/30 03:31:18;;;;;;;0.75;0.60;;;12.10;80.80;;;;;;5073601;28;20028;-66
2024/03/30 03:33:43;;;;;;;0.77;0.77;;;12.10;80.90;;;;;;5076675;28;20029;-67
2024/03/30 03:36:10;;;;;;;0.90;0.90;;;12.10;81.10;;;;;;5082449;28;20367;-67
2024/03/30 03:38:36;;;;;;;1.52;0.80;;;12.10;81.00;;;;;;5079655;28;20027;-66
2024/03/30 03:41:02;;;;;;;0.90;0.90;;;12.10;80.90;;;;;;5075503;28;20020;-67
2024/03/30 03:43:27;;;;;;;0.80;0.80;;;12.10;80.90;;;;;;5076956;28;20031;-65
2024/03/30 03:45:57;;;;;;;0.65;0.60;;;12.10;80.90;;;;;;5078446;28;20030;-64
2024/03/30 03:48:23;;;;;;;0.82;0.80;;;12.10;81.00;;;;;;5075310;28;20112;-66
2024/03/30 03:50:48;;;;;;;0.80;0.80;;;12.10;81.00;;;;;;5074757;28;20494;-67
2024/03/30 03:53:14;;;;;;;1.00;0.80;;;12.10;81.00;;;;;;5081006;28;20020;-67
2024/03/30 03:55:39;;;;;;;0.90;0.90;;;12.20;81.00;;;;;;5078728;28;20035;-67
2024/03/30 03:58:05;;;;;;;0.82;0.82;;;12.20;81.00;;;;;;5081108;28;20027;-66
2024/03/30 04:00:31;;;;;;;1.08;0.95;;;12.20;80.90;;;;;;5080417;28;20020;-66
2024/03/30 04:02:57;;;;;;;0.80;0.80;;;12.20;80.90;;;;;;5072376;28;20526;-65
2024/03/30 04:05:24;;;;;;;0.95;0.95;;;12.20;80.90;;;;;;5071315;28;20036;-65
2024/03/30 04:07:51;;;;;;;0.90;0.90;;;12.10;80.90;;;;;;5073652;28;20036;-66
2024/03/30 04:10:18;;;;;;;0.70;0.70;;;12.10;81.00;;;;;;5073993;28;20085;-66
2024/03/30 04:12:43;;;;;;;1.00;0.90;;;12.10;81.00;;;;;;5070363;28;20395;-66
2024/03/30 04:15:09;;;;;;;1.00;1.00;;;12.20;81.10;;;;;;5078148;28;20027;-66
2024/03/30 04:17:34;;;;;;;1.20;1.10;;;12.20;81.00;;;;;;5072957;28;20021;-66
2024/03/30 04:20:01;;;;;;;1.13;0.88;;;12.20;81.00;;;;;;5071611;28;20043;-66
2024/03/30 04:22:26;;;;;;;1.48;1.02;;;12.20;81.00;;;;;;5067998;28;20100;-66
2024/03/30 04:24:52;;;;;;;0.80;0.80;;;12.20;81.00;;;;;;5070082;28;20115;-65
2024/03/30 04:27:17;;;;;;;1.67;1.00;;;12.20;80.90;;;;;;5071647;28;20024;-64
2024/03/30 04:29:43;;;;;;;1.10;1.00;;;12.20;81.00;;;;;;5078220;28;20035;-66
2024/03/30 04:32:08;;;;;;;1.00;0.90;;;12.20;81.00;;;;;;5073312;28;20035;-65
2024/03/30 04:34:36;;;;;;;0.90;0.90;;;12.20;81.00;;;;;;5072337;28;20074;-65
2024/03/30 04:37:02;;;;;;;1.10;1.00;;;12.20;81.00;;;;;;5077057;28;20032;-66
2024/03/30 04:39:28;;;;;;;1.15;1.05;;;12.20;81.00;;;;;;5069238;28;20021;-66
2024/03/30 04:41:54;;;;;;;1.02;1.00;;;12.20;81.10;;;;;;5074022;28;20069;-65
2024/03/30 04:44:19;;;;;;;0.85;0.80;;;12.20;81.20;;;;;;5080796;28;20033;-65
2024/03/30 04:46:45;;;;;;;1.00;0.90;;;12.20;81.10;;;;;;5075906;28;20035;-66
2024/03/30 04:49:10;;;;;;;0.95;0.93;;;12.20;81.20;;;;;;5073873;28;20359;-66
2024/03/30 04:51:37;;;;;;;0.70;0.70;;;12.20;81.20;;;;;;5073158;28;20502;-65
2024/03/30 04:54:02;;;;;;;1.02;0.98;;;12.10;81.30;;;;;;5080128;28;20621;-66
2024/03/30 04:56:28;;;;;;;1.05;0.98;;;12.10;81.50;;;;;;5072842;28;20017;-65
2024/03/30 04:58:53;;;;;;;1.10;1.00;;;12.00;81.70;;;;;;5069001;28;20032;-64
2024/03/30 05:01:19;;;;;;;0.98;0.85;;;11.90;81.90;;;;;;5069392;28;20111;-66
2024/03/30 05:03:45;;;;;;;1.23;1.00;;;11.90;82.00;;;;;;5068915;28;20027;-65
2024/03/30 05:06:10;;;;;;;1.20;1.10;;;11.70;82.30;;;;;;5073279;28;20475;-65
2024/03/30 05:08:36;;;;;;;1.20;1.10;;;11.60;82.70;;;;;;5074866;28;20084;-66
2024/03/30 05:11:01;;;;;;;1.20;1.10;;;11.60;82.90;;;;;;5069157;28;20024;-66
2024/03/30 05:13:27;;;;;;;0.90;0.90;;;11.70;82.90;;;;;;5069465;28;20024;-66
2024/03/30 05:15:53;;;;;;;1.52;1.30;;;11.70;82.80;;;;;;5068389;28;20036;-67
2024/03/30 05:18:22;;;;;;;2.15;1.27;;;11.60;82.90;;;;;;5075851;28;20039;-66
2024/03/30 05:20:57;;;;;;;1.60;1.50;;;11.50;83.10;;;;;;5072057;28;20107;-66
2024/03/30 05:23:23;;;;;;;1.95;1.60;;;11.40;83.50;;;;;;5077524;28;20039;-64
2024/03/30 05:25:50;;;;;;;2.47;1.85;;;11.20;83.80;;;;;;5073092;28;20036;-66
2024/03/30 05:28:18;;;;;;;2.08;1.70;;;11.10;84.40;;;;;;5069245;28;20028;-66
2024/03/30 05:30:43;;;;;;;2.13;1.90;;;11.00;84.80;;;;;;5070659;28;20532;-66
2024/03/30 05:33:11;;;;;;;1.95;1.67;;;11.00;85.20;;;;;;5069726;28;20028;-66
2024/03/30 05:35:37;;;;;;;1.75;1.60;;;10.90;85.60;;;;;;5067979;28;20016;-66
2024/03/30 05:38:03;;;;;;;1.40;1.30;;;10.90;85.50;;;;;;5066746;28;20035;-66
2024/03/30 05:40:32;;;;;;;2.15;1.60;;;11.00;85.50;;;;;;5068619;28;20021;-66
2024/03/30 05:43:06;;;;;;;1.90;1.70;;;11.00;85.40;;;;;;5067493;28;20406;-64
2024/03/30 05:45:33;;;;;;;1.50;1.30;;;11.00;85.50;;;;;;5077689;28;20051;-66
2024/03/30 05:47:59;;;;;;;1.27;1.17;;;11.00;85.30;;;;;;5072774;28;20039;-65
2024/03/30 05:50:26;;;;;;;1.75;1.40;;;11.10;85.10;;;;;;5073759;28;20073;-65
2024/03/30 05:52:52;;;;;;;2.45;1.63;;;11.20;84.80;;;;;;5066680;28;20021;-66
2024/03/30 05:55:18;;;;;;;1.10;1.00;;;11.30;84.70;;;;;;5061143;28;20079;-66
2024/03/30 05:57:44;;;;;;;1.48;1.38;;;11.40;84.50;;;;;;5068063;28;20469;-64
2024/03/30 06:00:11;;;;;;;1.52;1.30;;;11.30;84.60;;;;;;5068794;28;20025;-65
2024/03/30 06:02:37;;;;;;;1.48;1.20;;;11.30;85.00;;;;;;5069067;28;20020;-66
2024/03/30 06:05:04;;;;;;;1.42;1.23;;;11.30;85.00;;;;;;5069053;28;20027;-66
2024/03/30 06:07:29;;;;;;;1.77;1.50;;;11.30;84.90;;;;;;5068184;28;20099;-66
2024/03/30 06:09:55;;;;;;;1.40;1.30;;;11.30;84.70;;;;;;5065359;28;20159;-64
2024/03/30 06:12:21;;;;;;;1.30;1.20;;;11.40;84.60;;;;;;5062747;28;20654;-66
2024/03/30 06:14:46;;;;;;;1.30;1.20;;;11.40;84.90;;;;;;5069124;28;20499;-67
2024/03/30 06:17:12;;;;;;;1.10;1.00;;;11.30;84.60;;;;;;5071436;28;20112;-66
2024/03/30 06:19:38;;;;;;;1.48;1.33;;;11.40;84.60;;;;;;5068100;28;20376;-65
2024/03/30 06:22:04;;;;;;;1.25;1.10;;;11.40;84.50;;;;;;5068827;28;20031;-66
2024/03/30 06:24:29;;;;;;;1.23;1.10;;;11.50;84.40;;;;;;5075902;28;20036;-65
2024/03/30 06:26:55;;;;;;;1.83;1.38;;;11.40;84.50;;;;;;5065358;28;20035;-66
2024/03/30 06:29:21;;;;;;;1.60;1.40;;;11.30;84.90;;;;;;5071753;28;20056;-66
2024/03/30 06:31:46;;;;;;;1.20;1.10;;;11.40;84.90;;;;;;5079877;28;20033;-66
2024/03/30 06:34:12;;;;;;;1.20;1.05;;;11.40;84.90;;;;;;5073833;28;20025;-65
2024/03/30 06:36:37;;;;;;;1.25;1.15;;;11.40;84.70;;;;;;5072943;28;20088;-66
2024/03/30 06:39:03;;;;;;;1.23;1.13;;;11.40;84.80;;;;;;5081611;28;20071;-66
2024/03/30 06:44:13;;;;;;;1.15;1.05;;;11.50;84.60;;;;;;5077456;28;20560;-66
2024/03/30 06:46:39;;;;;;;1.50;1.30;;;11.60;84.60;;;;;;5075564;28;20029;-66
2024/03/30 06:49:05;;;;;;;3.35;1.88;;;11.50;84.80;;;;;;5075199;28;20460;-66
2024/03/30 06:51:31;;;;;;;2.13;1.65;;;11.40;85.50;;;;;;5073921;28;20040;-65
2024/03/30 06:53:56;;;;;;;2.58;1.75;;;11.30;85.80;;;;;;5078833;28;20054;-65
2024/03/30 06:56:23;;;;;;;1.98;1.60;;;11.30;85.80;;;;;;5069720;28;20271;-66
2024/03/30 06:58:48;;;;;;;2.42;1.80;;;11.30;86.00;;;;;;5073629;28;20032;-66
2024/03/30 07:01:14;;;;;;;2.15;1.75;;;11.30;86.10;;;;;;5073264;28;20025;-66
2024/03/30 07:03:40;;;;;;;2.00;1.60;;;11.30;86.20;;;;;;5067652;28;20028;-64
2024/03/30 07:06:06;;;;;;;2.92;2.15;;;11.40;86.10;;;;;;5073218;28;20039;-65
2024/03/30 07:08:32;;;;;;;2.22;1.70;;;11.30;86.10;;;;;;5072621;28;20063;-65
2024/03/30 07:10:57;;;;;;;3.17;2.05;;;11.40;86.20;;;;;;5069983;28;20052;-63
2024/03/30 07:13:23;;;;;;;3.15;2.33;;;11.40;86.20;;;;;;5072129;28;20417;-66
2024/03/30 07:15:49;;;;;;;2.78;2.20;;;11.40;86.70;;;;;;5071695;28;20684;-65
2024/03/30 07:18:14;;;;;;;4.30;3.00;;;11.40;86.40;;;;;;5077046;28;20036;-66
2024/03/30 07:20:40;;;;;;;3.72;2.67;;;11.50;86.80;;;;;;5068906;28;20021;-65
2024/03/30 07:23:06;;;;;;;4.15;2.63;;;11.60;86.90;;;;;;5066101;28;20016;-67
2024/03/30 07:25:31;;;;;;;4.53;2.78;;;11.60;87.10;;;;;;5067394;28;20119;-66
2024/03/30 07:27:57;;;;;;;3.22;2.35;;;11.60;86.90;;;;;;5070728;28;20395;-64
2024/03/30 07:30:22;;;;;;;3.00;2.00;;;11.60;86.80;;;;;;5072087;28;20534;-64
2024/03/30 07:32:48;;;;;;;2.92;1.88;;;11.70;86.80;;;;;;5070241;28;20395;-65
2024/03/30 07:35:13;;;;;;;3.03;2.20;;;11.70;86.90;;;;;;5073259;28;20479;-65
2024/03/30 07:37:39;;;;;;;3.63;2.60;;;11.80;87.20;;;;;;5072143;28;20604;-65
2024/03/30 07:40:05;;;;;;;3.92;2.95;;;11.70;88.10;;;;;;5072532;28;20095;-67
2024/03/30 07:42:31;;;;;;;3.33;2.30;;;11.80;87.70;;;;;;5077455;28;20039;-67
2024/03/30 07:44:57;;;;;;;2.67;2.10;;;11.80;87.70;;;;;;5069478;28;20175;-65
2024/03/30 07:47:23;;;;;;;2.35;1.90;;;11.80;87.90;;;;;;5067836;28;20728;-66
2024/03/30 07:49:48;;;;;;;3.38;2.20;;;11.90;87.50;;;;;;5071403;28;20491;-67
2024/03/30 07:52:14;;;;;;;2.53;1.83;;;11.90;87.60;;;;;;5074565;28;20020;-66
2024/03/30 07:54:39;;;;;;;3.20;2.50;;;12.00;87.50;;;;;;5071640;28;20047;-67
2024/03/30 07:57:05;;;;;;;3.20;2.30;;;12.00;87.70;;;;;;5069859;28;20647;-66
2024/03/30 07:59:30;;;;;;;2.28;1.90;;;11.90;87.70;;;;;;5072032;28;20033;-66
2024/03/30 08:01:56;;;;;;;3.55;2.45;;;11.90;87.70;;;;;;5067625;28;20021;-65
2024/03/30 08:04:22;;;;;;;2.40;2.05;;;11.90;88.00;;;;;;5065876;28;20049;-65
2024/03/30 08:06:49;;;;;;;3.83;2.97;;;11.90;88.00;;;;;;5071557;28;20674;-66
2024/03/30 08:09:21;;;;;;;2.72;2.40;;;11.80;88.20;;;;;;5072881;28;20017;-66
2024/03/30 08:11:48;;;;;;;3.75;2.95;;;11.80;88.70;;;;;;5071027;28;20438;-67
2024/03/30 08:14:16;;;;;;;3.45;2.40;;;11.80;88.80;;;;;;5079296;28;20038;-65
2024/03/30 08:16:43;;;;;;;3.33;2.58;;;11.70;88.90;;;;;;5077154;28;20040;-66
2024/03/30 08:19:10;;;;;;;3.08;2.33;;;11.80;89.10;;;;;;5069464;28;20035;-65
2024/03/30 08:21:36;;;;;;;4.00;2.47;;;11.80;89.00;;;;;;5067859;28;20029;-66
2024/03/30 08:24:02;;;;;;;2.70;2.20;;;11.80;89.50;;;;;;5066819;28;20060;-66
2024/03/30 08:26:27;;;;;;;3.15;2.33;;;11.80;89.10;;;;;;5066297;28;20029;-66
2024/03/30 08:28:53;;;;;;;3.17;2.45;;;11.90;89.00;;;;;;5067898;28;20391;-66
2024/03/30 08:31:18;;;;;;;2.35;2.00;;;12.00;89.00;;;;;;5072958;28;20019;-66
2024/03/30 08:33:44;;;;;;;3.20;2.70;;;12.00;88.90;;;;;;5068056;28;20544;-66
2024/03/30 08:36:10;;;;;;;3.47;2.80;;;12.00;89.20;;;;;;5067866;28;20103;-66
2024/03/30 08:38:35;;;;;;;2.97;2.30;;;12.00;89.90;;;;;;5068860;28;20031;-66
2024/03/30 08:41:01;;;;;;;3.25;2.33;;;12.20;89.30;;;;;;5068903;28;20084;-66
2024/03/30 08:43:27;;;;;;;4.68;2.83;;;12.30;89.70;;;;;;5073332;28;20024;-66
2024/03/30 08:45:53;;;;;;;5.22;3.55;;;12.30;89.10;;;;;;5069912;28;20039;-65
2024/03/30 08:48:19;;;;;;;4.82;3.20;;;12.30;89.40;;;;;;5071973;28;20019;-65
2024/03/30 08:50:45;;;;;;;3.05;2.25;;;12.40;89.30;;;;;;5073295;28;20024;-66
2024/03/30 08:53:10;;;;;;;2.40;1.90;;;12.60;89.00;;;;;;5076679;28;20032;-66
2024/03/30 08:55:37;;;;;;;3.35;2.42;;;12.80;88.60;;;;;;5075154;28;20092;-66
2024/03/30 08:58:04;;;;;;;3.78;2.70;;;12.90;88.60;;;;;;5069278;28;20032;-66
2024/03/30 09:00:29;;;;;;;3.03;2.03;;;12.90;88.20;;;;;;5072393;28;20120;-66
2024/03/30 09:02:55;;;;;;;3.72;2.40;;;13.10;88.10;;;;;;5065590;28;20044;-66
2024/03/30 09:05:26;;;;;;;2.85;1.85;;;13.10;87.90;;;;;;5067287;28;20035;-66
2024/03/30 09:07:55;;;;;;;3.03;1.70;;;13.20;87.90;;;;;;5066064;28;20027;-66
2024/03/30 09:10:21;;;;;;;3.58;2.35;;;13.30;87.70;;;;;;5065732;28;20032;-66
2024/03/30 09:12:48;;;;;;;2.30;2.00;;;13.40;87.40;;;;;;5066186;28;20031;-66
2024/03/30 09:15:13;;;;;;;2.78;1.90;;;13.50;87.10;;;;;;5072792;28;20020;-66
2024/03/30 09:17:39;;;;;;;2.35;1.52;;;13.60;86.80;;;;;;5065688;28;20047;-66
2024/03/30 09:20:05;;;;;;;3.47;2.05;;;13.70;86.70;;;;;;5065585;28;20619;-66
2024/03/30 09:22:31;;;;;;;2.60;2.00;;;13.80;86.50;;;;;;5077064;28;20111;-65
2024/03/30 09:24:57;;;;;;;6.95;2.55;;;13.80;86.40;;;;;;5067873;28;20095;-66
2024/03/30 09:27:23;;;;;;;4.32;1.92;;;13.80;86.20;;;;;;5067136;28;20449;-66
2024/03/30 09:29:50;;;;;;;3.83;1.88;;;13.80;86.20;;;;;;5067372;28;20495;-66
2024/03/30 09:32:17;;;;;;;3.35;2.28;;;13.90;86.10;;;;;;5060263;28;20107;-65
2024/03/30 09:34:43;;;;;;;3.88;2.60;;;14.00;86.00;;;;;;5065597;28;20061;-66
2024/03/30 09:37:09;;;;;;;4.15;2.70;;;14.00;85.70;;;;;;5062806;28;20111;-66
2024/03/30 09:39:39;;;;;;;4.25;2.38;;;14.10;85.80;;;;;;5067885;28;20263;-66
2024/03/30 09:42:07;;;;;;;4.13;2.30;;;14.10;85.80;;;;;;5065374;28;20131;-66
2024/03/30 09:44:34;;;;;;;3.25;1.83;;;14.00;85.80;;;;;;5061265;28;20029;-66
2024/03/30 09:47:02;;;;;;;3.50;1.85;;;14.10;85.70;;;;;;5063292;28;20026;-67
2024/03/30 09:49:31;;;;;;;3.63;2.00;;;14.20;85.60;;;;;;5065199;28;20067;-66
2024/03/30 09:52:02;;;;;;;4.80;2.20;;;14.30;85.50;;;;;;5065982;28;20115;-66
2024/03/30 09:54:29;;;;;;;4.75;2.47;;;14.30;85.40;;;;;;5066104;28;20032;-66
2024/03/30 09:56:55;;;;;;;8.40;3.28;;;14.30;85.40;;;;;;5066466;28;20525;-66
2024/03/30 09:59:21;;;;;;;5.93;2.28;;;14.20;85.40;;;;;;5063550;28;20032;-66
2024/03/30 10:01:46;;;;;;;4.75;2.08;;;14.40;85.40;;;;;;5064429;28;20020;-66
2024/03/30 10:04:12;;;;;;;4.03;1.60;;;14.40;85.10;;;;;;5063321;28;20032;-66
2024/03/30 10:06:48;;;;;;;2.40;1.42;;;14.60;85.00;;;;;;5066164;28;20036;-66
2024/03/30 10:09:15;;;;;;;3.63;1.98;;;14.60;84.80;;;;;;5066898;28;20029;-66
2024/03/30 10:11:43;;;;;;;3.63;1.40;;;14.70;84.80;;;;;;5068190;28;20638;-66
2024/03/30 10:14:35;;;;;;;2.15;1.42;;;14.80;85.00;;;;;;5064242;28;20028;-66
2024/03/30 10:17:01;;;;;;;4.53;1.55;;;15.00;84.40;;;;;;5065499;28;20027;-66
2024/03/30 10:19:29;;;;;;;5.28;2.13;;;15.00;83.80;;;;;;5069906;28;20032;-66
2024/03/30 10:21:55;;;;;;;6.50;2.40;;;15.10;83.50;;;;;;5065478;28;20498;-66
2024/03/30 10:24:22;;;;;;;6.03;2.30;;;15.10;83.10;;;;;;5064559;28;20020;-66
2024/03/30 10:26:48;;;;;;;8.27;2.28;;;15.20;82.90;;;;;;5065872;28;20025;-66
2024/03/30 10:29:13;;;;;;;6.97;2.25;;;15.20;82.70;;;;;;5066609;28;20096;-66
2024/03/30 10:31:40;;;;;;;4.95;2.38;;;15.10;82.80;;;;;;5065705;28;20704;-66
2024/03/30 10:34:07;;;;;;;4.78;1.75;;;15.10;82.70;;;;;;5066580;28;20498;-66
2024/03/30 10:36:33;;;;;;;4.10;1.45;;;15.10;82.60;;;;;;5065344;28;20033;-66
2024/03/30 10:38:59;;;;;;;5.43;1.80;;;15.10;82.90;;;;;;5066515;28;20044;-66
2024/03/30 10:41:26;;;;;;;4.00;1.50;;;15.10;82.80;;;;;;5067825;28;20028;-66
2024/03/30 10:43:52;;;;;;;3.72;1.50;;;15.10;82.90;;;;;;5066178;28;20017;-66
2024/03/30 10:46:17;;;;;;;7.28;1.85;;;15.20;82.80;;;;;;5067575;28;20028;-66
2024/03/30 10:48:43;;;;;;;3.58;1.60;;;15.10;82.80;;;;;;5066436;28;20166;-66
2024/03/30 10:51:09;;;;;;;5.45;1.45;;;15.10;83.10;;;;;;5065235;28;20020;-66
2024/03/30 10:53:34;;;;;;;6.18;1.58;;;15.20;83.00;;;;;;5068329;28;20513;-67
2024/03/30 10:56:00;;;;;;;2.13;1.30;;;15.30;82.80;;;;;;5064940;28;20028;-66
2024/03/30 10:58:26;;;;;;;3.03;1.60;;;15.30;82.70;;;;;;5063845;28;20066;-66
2024/03/30 11:00:54;;;;;;;3.03;1.00;;;15.40;82.70;;;;;;5061986;28;20604;-66
2024/03/30 11:03:20;;;;;;;2.60;1.00;;;15.50;82.60;;;;;;5069273;28;20091;-65
2024/03/30 11:05:47;;;;;;;3.20;1.10;;;15.60;82.50;;;;;;5067288;28;20028;-66
2024/03/30 11:08:13;;;;;;;3.90;1.30;;;15.70;82.20;;;;;;5066457;28;20780;-66
2024/03/30 11:10:40;;;;;;;3.65;1.38;;;15.70;81.90;;;;;;5069323;28;20028;-66
2024/03/30 11:13:05;;;;;;;5.47;1.40;;;15.80;81.80;;;;;;5065992;28;20020;-66
2024/03/30 11:15:40;;;;;;;4.97;1.30;;;15.70;81.80;;;;;;5070221;28;20043;-66
2024/03/30 11:18:26;;;;;;;3.42;1.30;;;15.80;81.80;;;;;;5068235;28;20021;-66
2024/03/30 11:21:07;;;;;;;2.80;1.33;;;15.80;81.90;;;;;;5067617;28;20028;-66
2024/03/30 11:23:56;;;;;;;4.80;1.70;;;16.00;81.80;;;;;;5069953;28;20265;-66
2024/03/30 11:26:23;;;;;;;6.57;1.83;;;16.00;81.50;;;;;;5066106;28;20320;-65
2024/03/30 11:29:06;;;;;;;4.00;1.45;;;16.00;81.30;;;;;;5065319;28;20036;-66
2024/03/30 11:31:47;;;;;;;6.00;1.90;;;16.10;81.20;;;;;;5068422;28;20021;-66
2024/03/30 11:34:15;;;;;;;;;;;16.10;81.00;;;;;;5071209;28;20027;-65
2024/03/30 11:36:55;;;;;;;8.25;2.00;;;16.20;81.00;;;;;;5069061;28;19908;-66
2024/03/30 11:39:27;;;;;;;7.45;1.70;;;16.20;80.90;;;;;;5069194;28;20025;-65
2024/03/30 11:42:03;;;;;;;4.03;1.75;;;16.20;80.80;;;;;;5069749;28;20020;-65
2024/03/30 11:44:29;;;;;;;3.22;1.60;;;16.30;80.70;;;;;;5069003;28;20398;-65
2024/03/30 11:46:56;;;;;;;3.38;1.30;;;16.30;80.60;;;;;;5066080;28;20024;-66
2024/03/30 11:49:23;;;;;;;4.43;1.45;;;16.40;80.60;;;;;;5070134;28;20046;-65
2024/03/30 11:51:50;;;;;;;5.05;1.40;;;16.50;80.50;;;;;;5069902;28;20024;-65
2024/03/30 11:54:22;;;;;;;5.88;1.45;;;16.40;80.50;;;;;;5068795;28;21146;-65
2024/03/30 11:57:01;;;;;;;3.22;1.50;;;16.40;80.50;;;;;;5070309;28;20511;-66
2024/03/30 11:59:33;;;;;;;6.18;1.73;;;16.40;80.50;;;;;;5070950;28;20024;-66
2024/03/30 12:01:58;;;;;;;5.88;1.88;;;16.40;80.60;;;;;;5068630;28;20058;-65
2024/03/30 12:04:24;;;;;;;7.40;2.38;;;16.30;81.00;;;;;;5061481;28;20475;-66
2024/03/30 12:06:52;;;;;;;9.50;2.50;;;16.40;80.30;;;;;;5067146;28;20107;-66
2024/03/30 12:09:19;;;;;;;4.65;1.60;;;16.50;80.20;;;;;;5063094;28;20394;-66
2024/03/30 12:11:44;;;;;;;4.15;1.30;;;16.60;80.10;;;;;;5064841;28;20021;-66
2024/03/30 12:14:15;;;;;;;3.30;1.60;;;16.60;80.00;;;;;;5061703;28;20028;-66
2024/03/30 12:16:41;;;;;;;9.48;2.33;;;16.60;79.90;;;;;;5062479;28;20025;-66
2024/03/30 12:19:07;;;;;;;13.07;3.28;;;16.50;79.60;;;;;;5068219;28;20118;-67
2024/03/30 12:21:33;;;;;;;12.40;2.78;;;16.40;79.80;;;;;;5063323;28;20024;-66
2024/03/30 12:23:59;;;;;;;11.27;2.60;;;16.30;79.20;;;;;;5069083;28;20424;-66
2024/03/30 12:26:25;;;;;;;13.40;2.78;;;16.30;79.10;;;;;;5070317;28;20040;-67
2024/03/30 12:28:50;;;;;;;15.45;3.10;;;16.30;78.30;;;;;;5070830;28;20031;-66
2024/03/30 12:31:16;;;;;;;15.02;3.28;;;16.40;78.10;;;;;;5067076;28;20028;-65
2024/03/30 12:33:42;;;;;;;8.15;2.45;;;16.40;77.60;;;;;;5069991;28;20025;-65
2024/03/30 12:36:08;;;;;;;11.48;2.35;;;16.40;77.50;;;;;;5067500;28;20047;-65
2024/03/30 12:38:36;;;;;;;12.57;2.50;;;16.50;77.50;;;;;;5068238;28;20048;-65
2024/03/30 12:41:03;;;;;;;14.63;2.80;;;16.50;76.90;;;;;;5070302;28;20017;-65
2024/03/30 12:43:29;;;;;;;17.13;3.08;;;16.60;76.50;;;;;;5070406;28;20028;-65
2024/03/30 12:45:57;;;;;;;11.93;2.90;;;16.60;76.30;;;;;;5069298;28;20028;-65